Time;durP1;ratioP1;P1;durP2;ratioP2;P2;SDS_P1;SDS_P2;PMS_P1;PMS_P2;Temp;Humidity;BMP_temperature;BMP_pressure;BME280_temperature;BME280_humidity;BME280_pressure;Samples;Min_cycle;Max_cycle;Signal;HPM_P1;HPM_P2
2022/04/29 00:01:23;;;;;;;18.27;12.88;;;;;;;-140.79;100.00;63287.88;5023843;28;20025;-56
2022/04/29 00:03:48;;;;;;;19.85;14.13;;;;;;;-140.79;100.00;63287.88;5023796;28;20551;-55
2022/04/29 00:06:14;;;;;;;18.65;13.18;;;;;;;-140.79;100.00;63287.88;5024353;28;20022;-55
2022/04/29 00:08:40;;;;;;;20.60;14.98;;;;;;;-140.79;100.00;63287.88;5023954;28;20017;-56
2022/04/29 00:11:06;;;;;;;18.90;13.85;;;;;;;-140.79;100.00;63287.88;5024226;28;20531;-55
2022/04/29 00:13:32;;;;;;;17.42;13.45;;;;;;;-140.79;100.00;63287.88;5024274;28;20040;-56
2022/04/29 00:15:58;;;;;;;18.30;13.68;;;;;;;-140.79;100.00;63287.88;5024056;28;20030;-55
2022/04/29 00:18:23;;;;;;;18.88;14.07;;;;;;;-140.79;100.00;63287.88;5024376;28;20414;-56
2022/04/29 00:20:49;;;;;;;19.42;14.43;;;;;;;-140.79;100.00;63287.88;5024236;28;20036;-55
2022/04/29 00:23:14;;;;;;;19.67;14.18;;;;;;;-140.79;100.00;63287.88;5024187;28;20112;-54
2022/04/29 00:25:40;;;;;;;18.50;14.27;;;;;;;-140.79;100.00;63287.88;5024119;28;20053;-55
2022/04/29 00:28:06;;;;;;;18.77;14.10;;;;;;;-140.79;100.00;63287.88;5024184;28;20037;-54
2022/04/29 00:30:31;;;;;;;19.20;14.65;;;;;;;-140.79;100.00;63287.88;5024001;28;20415;-54
2022/04/29 00:32:57;;;;;;;19.30;14.02;;;;;;;-140.79;100.00;63287.88;5024116;28;20060;-55
2022/04/29 00:35:22;;;;;;;19.05;13.73;;;;;;;-140.79;100.00;63287.88;5023943;28;20005;-54
2022/04/29 00:37:49;;;;;;;19.30;14.10;;;;;;;-140.79;100.00;63287.88;5024010;28;20493;-55
2022/04/29 00:40:16;;;;;;;18.55;14.15;;;;;;;-140.79;100.00;63287.88;5023756;28;20033;-54
2022/04/29 00:42:43;;;;;;;19.45;14.05;;;;;;;-140.79;100.00;63287.88;5024147;28;20123;-54
2022/04/29 00:45:09;;;;;;;19.55;13.82;;;;;;;-140.79;100.00;63287.88;5006219;28;20052;-54
2022/04/29 00:47:34;;;;;;;19.65;14.27;;;;;;;-140.79;100.00;63287.88;5022658;28;20148;-54
2022/04/29 00:50:00;;;;;;;21.17;15.38;;;;;;;-140.79;100.00;63287.88;5006382;28;20032;-55
2022/04/29 00:52:25;;;;;;;19.20;14.77;;;;;;;-140.79;100.00;63287.88;5023861;28;20041;-54
2022/04/29 00:54:56;;;;;;;19.70;14.65;;;;;;;-140.79;100.00;63287.88;4989866;28;20757;-54
2022/04/29 00:57:28;;;;;;;19.35;13.95;;;;;;;-140.79;100.00;63287.88;4989811;28;20040;-55
2022/04/29 01:00:09;;;;;;;20.33;14.18;;;;;;;-140.79;100.00;63287.88;5023536;28;20036;-54
2022/04/29 01:02:41;;;;;;;20.02;13.60;;;;;;;-140.79;100.00;63287.88;5023783;28;20025;-55
2022/04/29 01:05:11;;;;;;;19.48;13.82;;;;;;;-140.79;100.00;63287.88;5006833;28;20026;-53
2022/04/29 01:07:38;;;;;;;19.75;14.07;;;;;;;-140.79;100.00;63287.88;5023141;28;20025;-55
2022/04/29 01:10:04;;;;;;;19.13;14.30;;;;;;;-140.79;100.00;63287.88;5006272;28;20032;-54
2022/04/29 01:12:32;;;;;;;17.92;13.68;;;;;;;-140.79;100.00;63287.88;5023807;28;20033;-54
2022/04/29 01:14:58;;;;;;;19.67;13.73;;;;;;;-140.79;100.00;63287.88;5023498;28;20095;-56
2022/04/29 01:17:25;;;;;;;21.15;14.52;;;;;;;-140.79;100.00;63287.88;4989698;28;20520;-55
2022/04/29 01:19:50;;;;;;;18.70;13.80;;;;;;;-140.79;100.00;63287.88;5023459;28;20087;-55
2022/04/29 01:22:16;;;;;;;19.00;14.02;;;;;;;-140.79;100.00;63287.88;5023162;28;20026;-55
2022/04/29 01:24:41;;;;;;;19.77;14.20;;;;;;;-140.79;100.00;63287.88;5023804;28;20025;-55
2022/04/29 01:27:10;;;;;;;19.58;14.00;;;;;;;-140.79;100.00;63287.88;5023216;28;20045;-56
2022/04/29 01:29:38;;;;;;;19.75;14.52;;;;;;;-140.79;100.00;63287.88;5023229;28;20030;-56
2022/04/29 01:32:04;;;;;;;20.10;14.43;;;;;;;-140.79;100.00;63287.88;5005246;28;20051;-55
2022/04/29 01:34:29;;;;;;;18.58;13.70;;;;;;;-140.79;100.00;63287.88;5023109;28;20033;-54
2022/04/29 01:36:54;;;;;;;20.35;14.23;;;;;;;-140.79;100.00;63287.88;5023342;28;20853;-55
2022/04/29 01:39:20;;;;;;;19.02;14.23;;;;;;;-140.79;100.00;63287.88;5023581;28;20041;-53
2022/04/29 01:41:45;;;;;;;19.17;14.45;;;;;;;-140.79;100.00;63287.88;5023493;28;20022;-55
2022/04/29 01:44:11;;;;;;;20.02;14.60;;;;;;;-140.79;100.00;63287.88;5023077;28;20030;-55
2022/04/29 01:46:36;;;;;;;18.67;13.95;;;;;;;-140.79;100.00;63287.88;5023395;28;20048;-55
2022/04/29 01:49:02;;;;;;;19.77;14.93;;;;;;;-140.79;100.00;63287.88;5023205;28;20409;-56
2022/04/29 01:51:28;;;;;;;20.70;14.35;;;;;;;-140.79;100.00;63287.88;5023223;28;20038;-55
2022/04/29 01:53:53;;;;;;;20.35;14.80;;;;;;;-140.79;100.00;63287.88;5021633;28;20033;-56
2022/04/29 01:56:20;;;;;;;20.90;15.07;;;;;;;-140.79;100.00;63287.88;5023595;28;20099;-54
2022/04/29 01:58:46;;;;;;;20.00;13.93;;;;;;;-140.79;100.00;63287.88;5023308;28;20029;-55
2022/04/29 02:01:12;;;;;;;20.63;15.18;;;;;;;-140.79;100.00;63287.88;5026581;28;20033;-55
2022/04/29 02:03:37;;;;;;;19.42;14.60;;;;;;;-140.79;100.00;63287.88;5026674;28;20069;-57
2022/04/29 02:06:03;;;;;;;20.48;14.10;;;;;;;-140.79;100.00;63287.88;5026853;28;20123;-54
2022/04/29 02:08:28;;;;;;;20.25;14.18;;;;;;;-140.79;100.00;63287.88;5026573;28;20116;-55
2022/04/29 02:10:54;;;;;;;19.13;14.18;;;;;;;-140.79;100.00;63287.88;5026670;28;20022;-56
2022/04/29 02:13:20;;;;;;;20.92;14.82;;;;;;;-140.79;100.00;63287.88;5026872;28;20032;-55
2022/04/29 02:15:46;;;;;;;19.95;15.13;;;;;;;-140.79;100.00;63287.88;5026592;28;20030;-55
2022/04/29 02:18:12;;;;;;;19.50;14.00;;;;;;;-140.79;100.00;63287.88;5026728;28;20504;-55
2022/04/29 02:20:37;;;;;;;20.40;14.75;;;;;;;-140.79;100.00;63287.88;5026310;28;20037;-56
2022/04/29 02:23:02;;;;;;;20.92;15.00;;;;;;;-140.79;100.00;63287.88;5008675;28;20025;-57
2022/04/29 02:25:28;;;;;;;21.05;15.73;;;;;;;-140.79;100.00;63287.88;5025400;28;20069;-55
2022/04/29 02:27:53;;;;;;;21.48;14.80;;;;;;;-140.79;100.00;63287.88;5025887;28;20042;-55
2022/04/29 02:30:19;;;;;;;20.15;14.65;;;;;;;-140.79;100.00;63287.88;5026254;28;20036;-55
2022/04/29 02:32:44;;;;;;;21.50;15.50;;;;;;;-140.79;100.00;63287.88;5026042;28;20099;-57
2022/04/29 02:35:09;;;;;;;19.65;15.02;;;;;;;-140.79;100.00;63287.88;5025985;28;20022;-56
2022/04/29 02:37:35;;;;;;;21.30;15.25;;;;;;;-140.79;100.00;63287.88;5026141;28;20029;-57
2022/04/29 02:40:01;;;;;;;19.88;14.25;;;;;;;-140.79;100.00;63287.88;5026302;28;20691;-55
2022/04/29 02:42:28;;;;;;;20.23;14.85;;;;;;;-140.79;100.00;63287.88;5025475;28;20084;-57
2022/04/29 02:44:53;;;;;;;20.15;15.13;;;;;;;-140.79;100.00;63287.88;5024474;28;20029;-56
2022/04/29 02:47:18;;;;;;;19.73;14.55;;;;;;;-140.79;100.00;63287.88;5026130;28;20483;-57
2022/04/29 02:49:44;;;;;;;19.33;14.48;;;;;;;-140.79;100.00;63287.88;5025926;28;20724;-56
2022/04/29 02:52:12;;;;;;;20.30;14.82;;;;;;;-140.79;100.00;63287.88;5025483;28;20032;-55
2022/04/29 02:54:38;;;;;;;18.23;14.18;;;;;;;-140.79;100.00;63287.88;5025871;28;20026;-55
2022/04/29 02:57:03;;;;;;;21.05;15.02;;;;;;;-140.79;100.00;63287.88;5025803;28;20046;-55
2022/04/29 02:59:29;;;;;;;17.52;14.02;;;;;;;-140.79;100.00;63287.88;5025479;28;20026;-55
2022/04/29 03:01:54;;;;;;;21.02;14.75;;;;;;;-140.79;100.00;63287.88;5025600;28;20021;-55
2022/04/29 03:04:20;;;;;;;20.70;15.00;;;;;;;-140.79;100.00;63287.88;5025319;28;20014;-55
2022/04/29 03:06:45;;;;;;;19.20;14.50;;;;;;;-140.79;100.00;63287.88;5025740;28;20030;-55
2022/04/29 03:09:11;;;;;;;19.58;14.38;;;;;;;-140.79;100.00;63287.88;5024101;28;20026;-56
2022/04/29 03:11:37;;;;;;;20.02;14.75;;;;;;;-140.79;100.00;63287.88;5024779;28;20488;-55
2022/04/29 03:14:02;;;;;;;21.38;14.40;;;;;;;-140.79;100.00;63287.88;5025880;28;20027;-55
2022/04/29 03:16:28;;;;;;;20.23;14.48;;;;;;;-140.79;100.00;63287.88;5023649;28;20033;-55
2022/04/29 03:18:53;;;;;;;19.73;14.60;;;;;;;-140.79;100.00;63287.88;5025411;28;20029;-54
2022/04/29 03:21:20;;;;;;;20.30;14.77;;;;;;;-140.79;100.00;63287.88;5025328;28;20064;-55
2022/04/29 03:23:46;;;;;;;19.77;14.27;;;;;;;-140.79;100.00;63287.88;5025430;28;20060;-54
2022/04/29 03:26:12;;;;;;;19.65;14.65;;;;;;;-140.79;100.00;63287.88;5024676;28;20136;-56
2022/04/29 03:28:37;;;;;;;19.83;14.20;;;;;;;-140.79;100.00;63287.88;5025336;28;20132;-56
2022/04/29 03:31:04;;;;;;;18.77;14.38;;;;;;;-140.79;100.00;63287.88;5025182;28;20079;-55
2022/04/29 03:33:29;;;;;;;19.70;14.20;;;;;;;-140.79;100.00;63287.88;5025028;28;20104;-55
2022/04/29 03:35:55;;;;;;;20.42;14.60;;;;;;;-140.79;100.00;63287.88;5024741;28;20408;-56
2022/04/29 03:38:21;;;;;;;21.15;14.90;;;;;;;-140.79;100.00;63287.88;5024750;28;20021;-55
2022/04/29 03:40:46;;;;;;;18.42;14.07;;;;;;;-140.79;100.00;63287.88;5007306;28;20412;-56
2022/04/29 03:43:12;;;;;;;19.27;14.18;;;;;;;-140.79;100.00;63287.88;5023825;28;20025;-55
2022/04/29 03:45:37;;;;;;;20.25;14.57;;;;;;;-140.79;100.00;63287.88;5023988;28;20030;-54
2022/04/29 03:48:03;;;;;;;20.80;14.45;;;;;;;-140.79;100.00;63287.88;5025105;28;20029;-55
2022/04/29 03:50:29;;;;;;;18.95;14.20;;;;;;;-140.79;100.00;63287.88;5024546;28;20512;-55
2022/04/29 03:52:59;;;;;;;19.40;14.40;;;;;;;-140.79;100.00;63287.88;5024304;28;20038;-55
2022/04/29 03:55:26;;;;;;;19.40;14.20;;;;;;;-140.79;100.00;63287.88;5007068;28;20026;-56
2022/04/29 03:57:53;;;;;;;19.58;14.35;;;;;;;-140.79;100.00;63287.88;5024517;28;20029;-56
2022/04/29 04:00:19;;;;;;;21.40;15.05;;;;;;;-140.79;100.00;63287.88;5024334;28;20021;-56
2022/04/29 04:02:44;;;;;;;19.60;13.98;;;;;;;-140.79;100.00;63287.88;5023170;28;20064;-55
2022/04/29 04:05:10;;;;;;;19.52;14.23;;;;;;;-140.79;100.00;63287.88;5024317;28;20048;-55
2022/04/29 04:07:36;;;;;;;19.17;13.95;;;;;;;-140.79;100.00;63287.88;5024217;28;20030;-54
2022/04/29 04:10:02;;;;;;;17.88;13.60;;;;;;;-140.79;100.00;63287.88;5024167;28;20520;-55
2022/04/29 04:12:40;;;;;;;18.40;13.98;;;;;;;-140.79;100.00;63287.88;5024507;28;20025;-55
2022/04/29 04:15:06;;;;;;;17.88;13.70;;;;;;;-140.79;100.00;63287.88;5024087;28;20667;-56
2022/04/29 04:17:31;;;;;;;19.40;14.25;;;;;;;-140.79;100.00;63287.88;5024021;28;20029;-55
2022/04/29 04:19:57;;;;;;;19.73;13.55;;;;;;;-140.79;100.00;63287.88;5024375;28;20029;-56
2022/04/29 04:22:22;;;;;;;18.98;13.85;;;;;;;-140.79;100.00;63287.88;5024118;28;20029;-56
2022/04/29 04:24:48;;;;;;;19.70;13.95;;;;;;;-140.79;100.00;63287.88;5023808;28;20033;-56
2022/04/29 04:27:13;;;;;;;17.70;13.20;;;;;;;-140.79;100.00;63287.88;5023723;28;20453;-56
2022/04/29 04:29:38;;;;;;;17.52;12.82;;;;;;;-140.79;100.00;63287.88;5024194;28;20038;-56
2022/04/29 04:32:04;;;;;;;19.00;13.35;;;;;;;-140.79;100.00;63287.88;5022246;28;20029;-55
2022/04/29 04:37:14;;;;;;;18.02;13.10;;;;;;;-140.79;100.00;63287.88;5024118;28;20040;-55
2022/04/29 04:39:39;;;;;;;16.75;12.30;;;;;;;-140.79;100.00;63287.88;5024559;28;20021;-55
2022/04/29 04:42:06;;;;;;;17.85;12.57;;;;;;;-140.79;100.00;63287.88;5024201;28;20029;-56
2022/04/29 04:44:31;;;;;;;17.02;12.25;;;;;;;-140.79;100.00;63287.88;5023762;28;20717;-55
2022/04/29 04:46:56;;;;;;;16.17;11.85;;;;;;;-140.79;100.00;63287.88;5024553;28;20104;-55
2022/04/29 04:49:22;;;;;;;15.50;11.77;;;;;;;-140.79;100.00;63287.88;5022618;28;20030;-55
2022/04/29 04:51:47;;;;;;;15.57;11.75;;;;;;;-140.79;100.00;63287.88;5021155;28;20022;-55
2022/04/29 04:54:13;;;;;;;16.83;12.00;;;;;;;-140.79;100.00;63287.88;5021700;28;20492;-55
2022/04/29 04:56:38;;;;;;;16.05;12.00;;;;;;;-140.79;100.00;63287.88;5022668;28;20044;-53
2022/04/29 04:59:04;;;;;;;17.02;12.30;;;;;;;-140.79;100.00;63287.88;5023935;28;20064;-55
2022/04/29 05:01:29;;;;;;;17.95;12.30;;;;;;;-140.79;100.00;63287.88;5021357;28;20123;-56
2022/04/29 05:03:55;;;;;;;16.15;12.32;;;;;;;-140.79;100.00;63287.88;5027884;28;20411;-55
2022/04/29 05:06:20;;;;;;;15.65;11.73;;;;;;;-140.79;100.00;63287.88;5022526;28;20492;-54
2022/04/29 05:08:46;;;;;;;16.20;12.07;;;;;;;-140.79;100.00;63287.88;5022802;28;20040;-55
2022/04/29 05:11:11;;;;;;;15.50;11.60;;;;;;;-140.79;100.00;63287.88;5022828;28;20303;-54
2022/04/29 05:13:36;;;;;;;14.95;10.70;;;;;;;-140.79;100.00;63287.88;5022909;28;20115;-55
2022/04/29 05:16:02;;;;;;;15.98;11.60;;;;;;;-140.79;100.00;63287.88;5022297;28;20626;-54
2022/04/29 05:18:27;;;;;;;14.43;10.98;;;;;;;-140.79;100.00;63287.88;5023757;28;20057;-54
2022/04/29 05:20:53;;;;;;;15.02;10.63;;;;;;;-140.79;100.00;63287.88;5021771;28;20033;-55
2022/04/29 05:23:18;;;;;;;14.48;10.95;;;;;;;-140.79;100.00;63287.88;5021886;28;20025;-55
2022/04/29 05:25:44;;;;;;;14.45;10.55;;;;;;;-140.79;100.00;63287.88;5024515;28;20113;-52
2022/04/29 05:28:09;;;;;;;14.25;10.40;;;;;;;-140.79;100.00;63287.88;5021568;28;20052;-52
2022/04/29 05:30:35;;;;;;;11.98;9.73;;;;;;;-140.79;100.00;63287.88;5022143;28;20040;-54
2022/04/29 05:33:01;;;;;;;13.80;9.57;;;;;;;-140.79;100.00;63287.88;5022845;28;20400;-52
2022/04/29 05:35:26;;;;;;;12.27;9.27;;;;;;;-140.79;100.00;63287.88;5006442;28;20757;-52
2022/04/29 05:37:52;;;;;;;13.55;10.00;;;;;;;-140.79;100.00;63287.88;5025778;28;20036;-54
2022/04/29 05:43:02;;;;;;;12.02;9.07;;;;;;;-140.79;100.00;63287.88;5012818;28;20094;-53
2022/04/29 05:45:28;;;;;;;11.27;8.60;;;;;;;-140.79;100.00;63287.88;5009745;28;20038;-54
2022/04/29 05:47:53;;;;;;;12.05;9.00;;;;;;;-140.79;100.00;63287.88;5026237;28;20029;-53
2022/04/29 05:50:18;;;;;;;14.48;9.73;;;;;;;-140.79;100.00;63287.88;5026356;28;20044;-53
2022/04/29 05:52:44;;;;;;;12.27;9.25;;;;;;;-140.79;100.00;63287.88;5028328;28;20025;-54
2022/04/29 05:55:09;;;;;;;11.80;9.50;;;;;;;-140.79;100.00;63287.88;5025447;28;20497;-52
2022/04/29 05:57:35;;;;;;;12.90;9.23;;;;;;;-140.79;100.00;63287.88;5024951;28;20504;-51
2022/04/29 06:00:00;;;;;;;10.77;8.43;;;;;;;-140.79;100.00;63287.88;5025729;28;20060;-54
2022/04/29 06:02:26;;;;;;;10.93;8.57;;;;;;;-140.79;100.00;63287.88;5027095;28;20037;-53
2022/04/29 06:04:51;;;;;;;10.98;8.60;;;;;;;-140.79;100.00;63287.88;5025436;28;20520;-54
2022/04/29 06:07:17;;;;;;;12.95;9.18;;;;;;;-140.79;100.00;63287.88;5026578;28;20026;-54
2022/04/29 06:09:43;;;;;;;12.82;9.30;;;;;;;-140.79;100.00;63287.88;5025880;28;20103;-54
2022/04/29 06:12:08;;;;;;;10.63;8.80;;;;;;;-140.79;100.00;63287.88;5025189;28;20045;-53
2022/04/29 06:14:35;;;;;;;10.48;8.35;;;;;;;-140.79;100.00;63287.88;5024890;28;20036;-53
2022/04/29 06:17:00;;;;;;;11.02;8.50;;;;;;;-140.79;100.00;63287.88;5025175;28;20577;-57
2022/04/29 06:19:26;;;;;;;10.48;8.30;;;;;;;-140.79;100.00;63287.88;5025456;28;20037;-55
2022/04/29 06:21:51;;;;;;;10.57;8.45;;;;;;;-140.79;100.00;63287.88;5025415;28;20032;-57
2022/04/29 06:24:16;;;;;;;10.50;8.05;;;;;;;-140.79;100.00;63287.88;5020498;28;20095;-54
2022/04/29 06:26:42;;;;;;;10.80;8.40;;;;;;;-140.79;100.00;63287.88;5018704;28;20057;-55
2022/04/29 06:29:08;;;;;;;11.85;7.97;;;;;;;-140.79;100.00;63287.88;5020337;28;20041;-57
2022/04/29 06:31:33;;;;;;;10.23;8.02;;;;;;;-140.79;100.00;63287.88;5020159;28;20100;-53
2022/04/29 06:33:59;;;;;;;10.63;8.13;;;;;;;-140.79;100.00;63287.88;5021687;28;20030;-54
2022/04/29 06:36:24;;;;;;;10.05;7.97;;;;;;;-140.79;100.00;63287.88;5024466;28;20033;-55
2022/04/29 06:38:50;;;;;;;9.82;7.72;;;;;;;-140.79;100.00;63287.88;5024728;28;20694;-54
2022/04/29 06:41:15;;;;;;;9.43;7.75;;;;;;;-140.79;100.00;63287.88;5028140;28;20029;-54
2022/04/29 06:43:40;;;;;;;10.32;8.18;;;;;;;-140.79;100.00;63287.88;5025663;28;20079;-54
2022/04/29 06:46:06;;;;;;;10.68;7.85;;;;;;;-140.79;100.00;63287.88;5022908;28;20033;-55
2022/04/29 06:48:31;;;;;;;10.43;8.20;;;;;;;-140.79;100.00;63287.88;5024188;28;20806;-53
2022/04/29 06:50:58;;;;;;;10.02;8.27;;;;;;;-140.79;100.00;63287.88;5031065;28;20021;-54
2022/04/29 06:53:23;;;;;;;10.07;7.80;;;;;;;-140.79;100.00;63287.88;5006848;28;20029;-54
2022/04/29 06:55:49;;;;;;;10.07;7.80;;;;;;;-140.79;100.00;63287.88;5024817;28;20083;-54
2022/04/29 06:58:15;;;;;;;9.32;7.43;;;;;;;-140.79;100.00;63287.88;5022234;28;20021;-54
2022/04/29 07:00:41;;;;;;;11.57;8.10;;;;;;;-140.79;100.00;63287.88;5022926;28;20688;-55
2022/04/29 07:03:06;;;;;;;10.38;7.40;;;;;;;-140.79;100.00;63287.88;5025800;28;20029;-55
2022/04/29 07:05:32;;;;;;;11.15;7.75;;;;;;;-140.79;100.00;63287.88;5024283;28;20081;-55
2022/04/29 07:08:02;;;;;;;9.15;7.20;;;;;;;-140.79;100.00;63287.88;5028309;28;20024;-55
2022/04/29 07:10:28;;;;;;;9.77;7.63;;;;;;;-140.79;100.00;63287.88;5028323;28;20013;-54
2022/04/29 07:12:53;;;;;;;8.70;7.60;;;;;;;-140.79;100.00;63287.88;5023669;28;20139;-55
2022/04/29 07:15:21;;;;;;;10.35;7.35;;;;;;;-140.79;100.00;63287.88;5024781;28;20017;-56
2022/04/29 07:17:46;;;;;;;10.85;8.57;;;;;;;-140.79;100.00;63287.88;5020497;28;20038;-57
2022/04/29 07:20:12;;;;;;;9.95;7.72;;;;;;;-140.79;100.00;63287.88;5021233;28;20877;-56
2022/04/29 07:22:38;;;;;;;10.77;8.20;;;;;;;-140.79;100.00;63287.88;5029967;28;20025;-57
2022/04/29 07:25:08;;;;;;;11.10;8.27;;;;;;;-140.79;100.00;63287.88;5020394;28;20037;-56
2022/04/29 07:27:33;;;;;;;9.98;8.23;;;;;;;-140.79;100.00;63287.88;5023344;28;20120;-55
2022/04/29 07:29:59;;;;;;;9.93;7.50;;;;;;;-140.79;100.00;63287.88;5010914;28;20029;-55
2022/04/29 07:32:25;;;;;;;10.80;7.55;;;;;;;-140.79;100.00;63287.88;5027730;28;20017;-56
2022/04/29 07:43:04;;;;;;;11.60;7.82;;;;;;;-140.79;100.00;63287.88;5022436;28;20053;-55
2022/04/29 07:45:29;;;;;;;12.43;8.73;;;;;;;-140.79;100.00;63287.88;5021836;28;20029;-55
2022/04/29 07:47:58;;;;;;;11.73;8.05;;;;;;;-140.79;100.00;63287.88;5024499;28;20481;-55
2022/04/29 07:50:23;;;;;;;11.25;7.72;;;;;;;-140.79;100.00;63287.88;5023422;28;20543;-54
2022/04/29 07:52:49;;;;;;;10.00;7.78;;;;;;;-140.79;100.00;63287.88;5021930;28;20022;-55
2022/04/29 07:55:14;;;;;;;10.05;7.60;;;;;;;-140.79;100.00;63287.88;5022705;28;20021;-56
2022/04/29 07:57:40;;;;;;;10.35;8.10;;;;;;;-140.79;100.00;63287.88;5021890;28;20026;-55
2022/04/29 08:00:06;;;;;;;10.75;7.55;;;;;;;-140.79;100.00;63287.88;5021979;28;20030;-55
2022/04/29 08:02:32;;;;;;;8.30;7.07;;;;;;;-140.79;100.00;63287.88;5022448;28;20028;-56
2022/04/29 08:04:57;;;;;;;9.80;7.45;;;;;;;-140.79;100.00;63287.88;5024433;28;20036;-54
2022/04/29 08:07:23;;;;;;;9.70;7.55;;;;;;;-140.79;100.00;63287.88;5024419;28;20045;-55
2022/04/29 08:09:49;;;;;;;9.15;7.22;;;;;;;-140.79;100.00;63287.88;5024045;28;20041;-55
2022/04/29 08:12:14;;;;;;;9.93;8.02;;;;;;;-140.79;100.00;63287.88;5024677;28;20034;-57
2022/04/29 08:14:40;;;;;;;10.88;7.75;;;;;;;-140.79;100.00;63287.88;5025844;28;20040;-55
2022/04/29 08:17:06;;;;;;;10.48;7.35;;;;;;;-140.79;100.00;63287.88;5025701;28;20079;-54
2022/04/29 08:19:31;;;;;;;9.32;7.15;;;;;;;-140.79;100.00;63287.88;5026284;28;20112;-55
2022/04/29 08:21:57;;;;;;;10.13;8.07;;;;;;;-140.79;100.00;63287.88;5025599;28;20034;-54
2022/04/29 08:24:23;;;;;;;10.23;7.63;;;;;;;-140.79;100.00;63287.88;5024412;28;20018;-55
2022/04/29 08:26:48;;;;;;;10.60;7.22;;;;;;;-140.79;100.00;63287.88;5023721;28;20052;-54
2022/04/29 08:29:14;;;;;;;9.00;7.63;;;;;;;-140.79;100.00;63287.88;5024000;28;20025;-58
2022/04/29 08:31:39;;;;;;;9.48;7.57;;;;;;;-140.79;100.00;63287.88;5023940;28;20040;-55
2022/04/29 08:34:04;;;;;;;9.55;6.75;;;;;;;-140.79;100.00;63287.88;5022221;28;20029;-56
2022/04/29 08:36:31;;;;;;;9.70;6.93;;;;;;;-140.79;100.00;63287.88;5023803;28;20089;-56
2022/04/29 08:38:57;;;;;;;8.48;6.90;;;;;;;-140.79;100.00;63287.88;5024035;28;20032;-54
2022/04/29 08:41:23;;;;;;;8.30;7.22;;;;;;;-140.79;100.00;63287.88;5023627;28;20091;-55
2022/04/29 08:43:48;;;;;;;7.82;6.70;;;;;;;-140.79;100.00;63287.88;5022419;28;20064;-55
2022/04/29 08:46:14;;;;;;;8.05;6.50;;;;;;;-140.79;100.00;63287.88;5023199;28;20040;-54
2022/04/29 08:48:41;;;;;;;8.55;6.30;;;;;;;-140.79;100.00;63287.88;5023441;28;20025;-53
2022/04/29 08:51:07;;;;;;;9.55;6.75;;;;;;;-140.79;100.00;63287.88;5006626;28;20596;-54
2022/04/29 08:53:34;;;;;;;9.35;6.68;;;;;;;-140.79;100.00;63287.88;5022224;28;20060;-54
2022/04/29 08:58:44;;;;;;;8.70;5.93;;;;;;;-140.79;100.00;63287.88;5008742;28;20032;-54
2022/04/29 09:01:10;;;;;;;8.98;5.85;;;;;;;-140.79;100.00;63287.88;4989441;28;20033;-54
2022/04/29 09:03:37;;;;;;;8.35;6.05;;;;;;;-140.79;100.00;63287.88;5023738;28;20485;-54
2022/04/29 09:06:04;;;;;;;7.95;6.18;;;;;;;-140.79;100.00;63287.88;5023167;28;20052;-55
2022/04/29 09:08:33;;;;;;;7.70;6.13;;;;;;;-140.79;100.00;63287.88;5023109;28;20110;-53
2022/04/29 09:10:59;;;;;;;6.70;5.25;;;;;;;-140.79;100.00;63287.88;5023568;28;20485;-53
2022/04/29 09:13:31;;;;;;;5.93;5.18;;;;;;;-140.79;100.00;63287.88;5023518;28;20029;-55
2022/04/29 09:16:06;;;;;;;7.70;5.40;;;;;;;-140.79;100.00;63287.88;5022956;28;20018;-55
2022/04/29 09:18:34;;;;;;;8.70;5.78;;;;;;;-140.79;100.00;63287.88;5022373;28;20026;-54
2022/04/29 09:21:09;;;;;;;7.82;5.80;;;;;;;-140.79;100.00;63287.88;5021403;28;20032;-53
2022/04/29 09:23:39;;;;;;;7.00;5.60;;;;;;;-140.79;100.00;63287.88;5004916;28;20030;-56
2022/04/29 09:26:05;;;;;;;7.38;5.57;;;;;;;-140.79;100.00;63287.88;5022583;28;20119;-55
2022/04/29 09:28:35;;;;;;;7.00;5.43;;;;;;;-140.79;100.00;63287.88;5022317;28;20757;-56
2022/04/29 09:31:00;;;;;;;7.53;5.75;;;;;;;-140.79;100.00;63287.88;5023277;28;20127;-56
2022/04/29 09:33:26;;;;;;;7.78;5.63;;;;;;;-140.79;100.00;63287.88;5023304;28;20041;-54
2022/04/29 09:35:54;;;;;;;7.55;6.10;;;;;;;-140.79;100.00;63287.88;5005463;28;20037;-55
2022/04/29 09:41:06;;;;;;;7.95;6.20;;;;;;;-140.79;100.00;63287.88;5022011;28;21634;-57
2022/04/29 09:43:39;;;;;;;6.40;5.40;;;;;;;-140.79;100.00;63287.88;5021583;28;20061;-55
2022/04/29 09:46:18;;;;;;;7.97;6.22;;;;;;;-140.79;100.00;63287.88;5022746;28;20124;-54
2022/04/29 09:49:00;;;;;;;6.70;5.75;;;;;;;-140.79;100.00;63287.88;5022844;28;20056;-54
2022/04/29 09:51:48;;;;;;;7.50;5.57;;;;;;;-140.79;100.00;63287.88;5021671;28;20025;-55
2022/04/29 09:54:17;;;;;;;5.97;5.38;;;;;;;-140.79;100.00;63287.88;5022012;28;20066;-54
2022/04/29 09:56:44;;;;;;;7.30;5.20;;;;;;;-140.79;100.00;63287.88;5022023;28;20123;-55
2022/04/29 09:59:10;;;;;;;6.80;6.05;;;;;;;-140.79;100.00;63287.88;5021878;28;20014;-54
2022/04/29 10:01:35;;;;;;;6.93;5.35;;;;;;;-140.79;100.00;63287.88;5021093;28;20385;-54
2022/04/29 10:04:01;;;;;;;6.03;5.40;;;;;;;-140.79;100.00;63287.88;5022363;28;20103;-54
2022/04/29 10:06:27;;;;;;;9.00;5.40;;;;;;;-140.79;100.00;63287.88;5022009;28;20041;-51
2022/04/29 10:08:52;;;;;;;9.25;5.88;;;;;;;-140.79;100.00;63287.88;5022454;28;20028;-53
2022/04/29 10:11:18;;;;;;;9.27;5.70;;;;;;;-140.79;100.00;63287.88;4988054;28;20026;-53
2022/04/29 10:13:43;;;;;;;7.70;5.47;;;;;;;-140.79;100.00;63287.88;5004885;28;20509;-53
2022/04/29 10:16:10;;;;;;;8.55;6.10;;;;;;;-140.79;100.00;63287.88;4988758;28;20037;-55
2022/04/29 10:21:22;;;;;;;7.95;5.78;;;;;;;-140.79;100.00;63287.88;5025064;28;20044;-55
2022/04/29 10:23:51;;;;;;;8.55;6.50;;;;;;;-140.79;100.00;63287.88;5027771;28;20029;-54
2022/04/29 10:26:20;;;;;;;8.98;6.60;;;;;;;-140.79;100.00;63287.88;5025160;28;20064;-54
2022/04/29 10:28:45;;;;;;;10.13;6.90;;;;;;;-140.79;100.00;63287.88;5028154;28;20492;-53
2022/04/29 10:31:21;;;;;;;9.75;6.80;;;;;;;-140.79;100.00;63287.88;5007549;28;20072;-53
2022/04/29 10:33:46;;;;;;;9.15;6.80;;;;;;;-140.79;100.00;63287.88;5024996;28;20072;-52
2022/04/29 10:36:15;;;;;;;9.43;7.07;;;;;;;-140.79;100.00;63287.88;5025448;28;20018;-54
2022/04/29 10:38:44;;;;;;;8.77;7.27;;;;;;;-140.79;100.00;63287.88;5026126;28;20114;-55
2022/04/29 10:41:16;;;;;;;12.75;6.97;;;;;;;-140.79;100.00;63287.88;5025528;28;20276;-55
2022/04/29 10:43:51;;;;;;;10.27;7.93;;;;;;;-140.79;100.00;63287.88;5025696;28;20037;-56
2022/04/29 10:46:16;;;;;;;11.05;7.65;;;;;;;-140.79;100.00;63287.88;5024084;28;20032;-54
2022/04/29 10:48:42;;;;;;;9.77;6.75;;;;;;;-140.79;100.00;63287.88;5024570;28;20025;-55
2022/04/29 10:51:11;;;;;;;10.60;7.60;;;;;;;-140.79;100.00;63287.88;5005118;28;20207;-55
2022/04/29 10:53:41;;;;;;;10.40;7.10;;;;;;;-140.79;100.00;63287.88;5021760;28;20025;-55
2022/04/29 10:56:28;;;;;;;10.38;7.15;;;;;;;-140.79;100.00;63287.88;5021393;28;20548;-54
2022/04/29 10:59:14;;;;;;;10.45;7.47;;;;;;;-140.79;100.00;63287.88;5022807;28;20516;-56
2022/04/29 11:01:40;;;;;;;11.80;7.60;;;;;;;-140.79;100.00;63287.88;5022997;28;20041;-54
2022/04/29 11:04:07;;;;;;;11.77;7.07;;;;;;;-140.79;100.00;63287.88;5023152;28;20021;-55
2022/04/29 11:06:41;;;;;;;9.85;6.80;;;;;;;-140.79;100.00;63287.88;5004735;28;20091;-54
2022/04/29 11:09:47;;;;;;;10.40;7.07;;;;;;;-140.79;100.00;63287.88;5021848;28;20109;-55
2022/04/29 11:12:37;;;;;;;11.77;7.10;;;;;;;-140.79;100.00;63287.88;5026189;28;20092;-56
2022/04/29 11:15:12;;;;;;;9.27;7.03;;;;;;;-140.79;100.00;63287.88;5022592;28;20064;-55
2022/04/29 11:17:38;;;;;;;10.80;7.32;;;;;;;-140.79;100.00;63287.88;5020298;28;20143;-55
2022/04/29 11:20:16;;;;;;;11.75;7.93;;;;;;;-140.79;100.00;63287.88;5021827;28;20014;-55